sensor_id;sensor_type;location;lat;lon;timestamp;P1;P2;P0
76679;PMS5003;65597;51.520;-0.224;2023-04-01T00:01:37;15;15;
76679;PMS5003;65597;51.520;-0.224;2023-04-01T00:04:03;17;17;
76679;PMS5003;65597;51.520;-0.224;2023-04-01T00:06:28;15;15;
76679;PMS5003;65597;51.520;-0.224;2023-04-01T00:08:53;17;16;
76679;PMS5003;65597;51.520;-0.224;2023-04-01T00:11:18;16;15;
76679;PMS5003;65597;51.520;-0.224;2023-04-01T00:13:44;19;18;
76679;PMS5003;65597;51.520;-0.224;2023-04-01T00:16:09;15;14;
76679;PMS5003;65597;51.520;-0.224;2023-04-01T00:18:34;18;16;
76679;PMS5003;65597;51.520;-0.224;2023-04-01T00:21:01;16;15;
76679;PMS5003;65597;51.520;-0.224;2023-04-01T00:23:25;13;13;
76679;PMS5003;65597;51.520;-0.224;2023-04-01T00:25:50;16;15;
76679;PMS5003;65597;51.520;-0.224;2023-04-01T00:28:16;14;14;
76679;PMS5003;65597;51.520;-0.224;2023-04-01T00:30:41;15;14;
76679;PMS5003;65597;51.520;-0.224;2023-04-01T00:33:07;18;18;
76679;PMS5003;65597;51.520;-0.224;2023-04-01T00:35:32;19;18;
76679;PMS5003;65597;51.520;-0.224;2023-04-01T00:37:57;13;13;
76679;PMS5003;65597;51.520;-0.224;2023-04-01T00:40:24;19;18;
76679;PMS5003;65597;51.520;-0.224;2023-04-01T00:42:48;16;15;
76679;PMS5003;65597;51.520;-0.224;2023-04-01T00:45:23;18;17;
76679;PMS5003;65597;51.520;-0.224;2023-04-01T00:47:39;17;17;
76679;PMS5003;65597;51.520;-0.224;2023-04-01T00:50:04;18;17;
76679;PMS5003;65597;51.520;-0.224;2023-04-01T00:52:30;16;16;
76679;PMS5003;65597;51.520;-0.224;2023-04-01T00:54:56;19;18;
76679;PMS5003;65597;51.520;-0.224;2023-04-01T00:57:23;17;17;
76679;PMS5003;65597;51.520;-0.224;2023-04-01T00:59:46;18;17;
76679;PMS5003;65597;51.520;-0.224;2023-04-01T01:02:12;17;16;
76679;PMS5003;65597;51.520;-0.224;2023-04-01T01:04:37;15;15;
76679;PMS5003;65597;51.520;-0.224;2023-04-01T01:07:05;16;16;
76679;PMS5003;65597;51.520;-0.224;2023-04-01T01:09:31;15;15;
76679;PMS5003;65597;51.520;-0.224;2023-04-01T01:11:54;12;12;
76679;PMS5003;65597;51.520;-0.224;2023-04-01T01:14:22;14;14;
76679;PMS5003;65597;51.520;-0.224;2023-04-01T01:16:45;10;10;
76679;PMS5003;65597;51.520;-0.224;2023-04-01T01:19:11;9;9;
76679;PMS5003;65597;51.520;-0.224;2023-04-01T01:21:42;8;8;
76679;PMS5003;65597;51.520;-0.224;2023-04-01T01:24:07;9;9;
76679;PMS5003;65597;51.520;-0.224;2023-04-01T01:28:52;10;10;
76679;PMS5003;65597;51.520;-0.224;2023-04-01T01:31:17;10;10;
76679;PMS5003;65597;51.520;-0.224;2023-04-01T01:33:49;8;7;
76679;PMS5003;65597;51.520;-0.224;2023-04-01T01:36:08;7;7;
76679;PMS5003;65597;51.520;-0.224;2023-04-01T01:38:33;10;8;
76679;PMS5003;65597;51.520;-0.224;2023-04-01T01:40:58;8;8;
76679;PMS5003;65597;51.520;-0.224;2023-04-01T01:43:25;7;6;
76679;PMS5003;65597;51.520;-0.224;2023-04-01T01:45:52;9;8;
76679;PMS5003;65597;51.520;-0.224;2023-04-01T01:48:14;7;6;
76679;PMS5003;65597;51.520;-0.224;2023-04-01T01:50:40;8;8;
76679;PMS5003;65597;51.520;-0.224;2023-04-01T01:53:07;7;7;
76679;PMS5003;65597;51.520;-0.224;2023-04-01T01:55:32;7;7;
76679;PMS5003;65597;51.520;-0.224;2023-04-01T01:57:58;6;6;
76679;PMS5003;65597;51.520;-0.224;2023-04-01T02:00:22;7;7;
76679;PMS5003;65597;51.520;-0.224;2023-04-01T02:02:47;4;4;
76679;PMS5003;65597;51.520;-0.224;2023-04-01T02:05:14;9;9;
76679;PMS5003;65597;51.520;-0.224;2023-04-01T02:07:38;8;8;
76679;PMS5003;65597;51.520;-0.224;2023-04-01T02:10:15;8;8;
76679;PMS5003;65597;51.520;-0.224;2023-04-01T02:12:29;6;6;
76679;PMS5003;65597;51.520;-0.224;2023-04-01T02:14:55;7;7;
76679;PMS5003;65597;51.520;-0.224;2023-04-01T02:17:21;6;6;
76679;PMS5003;65597;51.520;-0.224;2023-04-01T02:19:47;6;6;
76679;PMS5003;65597;51.520;-0.224;2023-04-01T02:22:13;6;6;
76679;PMS5003;65597;51.520;-0.224;2023-04-01T02:24:36;7;7;
76679;PMS5003;65597;51.520;-0.224;2023-04-01T02:27:02;8;8;
76679;PMS5003;65597;51.520;-0.224;2023-04-01T02:29:27;7;7;
76679;PMS5003;65597;51.520;-0.224;2023-04-01T02:31:53;6;6;
76679;PMS5003;65597;51.520;-0.224;2023-04-01T02:34:19;12;11;
76679;PMS5003;65597;51.520;-0.224;2023-04-01T02:36:43;7;7;
76679;PMS5003;65597;51.520;-0.224;2023-04-01T02:39:09;9;9;
76679;PMS5003;65597;51.520;-0.224;2023-04-01T02:41:38;7;7;
76679;PMS5003;65597;51.520;-0.224;2023-04-01T02:44:00;10;9;
76679;PMS5003;65597;51.520;-0.224;2023-04-01T02:46:25;7;7;
76679;PMS5003;65597;51.520;-0.224;2023-04-01T02:48:51;9;9;
76679;PMS5003;65597;51.520;-0.224;2023-04-01T02:51:16;9;8;
76679;PMS5003;65597;51.520;-0.224;2023-04-01T02:53:42;6;5;
76679;PMS5003;65597;51.520;-0.224;2023-04-01T02:56:07;6;6;
76679;PMS5003;65597;51.520;-0.224;2023-04-01T02:58:34;6;6;
76679;PMS5003;65597;51.520;-0.224;2023-04-01T03:00:58;5;5;
76679;PMS5003;65597;51.520;-0.224;2023-04-01T03:03:23;3;3;
76679;PMS5003;65597;51.520;-0.224;2023-04-01T03:05:48;6;5;
76679;PMS5003;65597;51.520;-0.224;2023-04-01T03:08:14;7;7;
76679;PMS5003;65597;51.520;-0.224;2023-04-01T03:10:40;14;12;
76679;PMS5003;65597;51.520;-0.224;2023-04-01T03:13:05;4;4;
76679;PMS5003;65597;51.520;-0.224;2023-04-01T03:15:30;4;4;
76679;PMS5003;65597;51.520;-0.224;2023-04-01T03:17:56;4;4;
76679;PMS5003;65597;51.520;-0.224;2023-04-01T03:20:21;4;4;
76679;PMS5003;65597;51.520;-0.224;2023-04-01T03:22:47;1;1;
76679;PMS5003;65597;51.520;-0.224;2023-04-01T03:25:12;4;4;
76679;PMS5003;65597;51.520;-0.224;2023-04-01T03:27:38;3;3;
76679;PMS5003;65597;51.520;-0.224;2023-04-01T03:30:04;3;3;
76679;PMS5003;65597;51.520;-0.224;2023-04-01T03:32:29;2;2;
76679;PMS5003;65597;51.520;-0.224;2023-04-01T03:34:55;2;2;
76679;PMS5003;65597;51.520;-0.224;2023-04-01T03:37:19;3;3;
76679;PMS5003;65597;51.520;-0.224;2023-04-01T03:39:45;3;3;
76679;PMS5003;65597;51.520;-0.224;2023-04-01T03:42:10;3;3;
76679;PMS5003;65597;51.520;-0.224;2023-04-01T03:44:36;4;2;
76679;PMS5003;65597;51.520;-0.224;2023-04-01T03:47:01;2;2;
76679;PMS5003;65597;51.520;-0.224;2023-04-01T03:49:27;3;3;
76679;PMS5003;65597;51.520;-0.224;2023-04-01T03:51:52;3;3;
76679;PMS5003;65597;51.520;-0.224;2023-04-01T03:54:18;2;2;
76679;PMS5003;65597;51.520;-0.224;2023-04-01T03:56:43;5;4;
76679;PMS5003;65597;51.520;-0.224;2023-04-01T03:59:09;4;4;
76679;PMS5003;65597;51.520;-0.224;2023-04-01T04:01:34;9;9;
76679;PMS5003;65597;51.520;-0.224;2023-04-01T04:04:04;12;10;
76679;PMS5003;65597;51.520;-0.224;2023-04-01T04:06:25;4;4;
76679;PMS5003;65597;51.520;-0.224;2023-04-01T04:08:50;2;2;
76679;PMS5003;65597;51.520;-0.224;2023-04-01T04:11:16;3;3;
76679;PMS5003;65597;51.520;-0.224;2023-04-01T04:13:42;2;2;
76679;PMS5003;65597;51.520;-0.224;2023-04-01T04:16:07;3;3;
76679;PMS5003;65597;51.520;-0.224;2023-04-01T04:18:32;3;3;
76679;PMS5003;65597;51.520;-0.224;2023-04-01T04:20:58;4;4;
76679;PMS5003;65597;51.520;-0.224;2023-04-01T04:23:24;4;4;
76679;PMS5003;65597;51.520;-0.224;2023-04-01T04:25:54;4;4;
76679;PMS5003;65597;51.520;-0.224;2023-04-01T04:28:14;6;4;
76679;PMS5003;65597;51.520;-0.224;2023-04-01T04:30:39;5;5;
76679;PMS5003;65597;51.520;-0.224;2023-04-01T04:33:05;5;5;
76679;PMS5003;65597;51.520;-0.224;2023-04-01T04:35:30;3;3;
76679;PMS5003;65597;51.520;-0.224;2023-04-01T04:37:56;5;5;
76679;PMS5003;65597;51.520;-0.224;2023-04-01T04:40:21;5;5;
76679;PMS5003;65597;51.520;-0.224;2023-04-01T04:42:47;3;3;
76679;PMS5003;65597;51.520;-0.224;2023-04-01T04:45:12;3;2;
76679;PMS5003;65597;51.520;-0.224;2023-04-01T04:47:38;5;5;
76679;PMS5003;65597;51.520;-0.224;2023-04-01T04:50:03;5;4;
76679;PMS5003;65597;51.520;-0.224;2023-04-01T04:52:28;4;4;
76679;PMS5003;65597;51.520;-0.224;2023-04-01T04:54:54;5;4;
76679;PMS5003;65597;51.520;-0.224;2023-04-01T04:57:20;5;4;
76679;PMS5003;65597;51.520;-0.224;2023-04-01T04:59:45;3;3;
76679;PMS5003;65597;51.520;-0.224;2023-04-01T05:02:11;4;4;
76679;PMS5003;65597;51.520;-0.224;2023-04-01T05:04:36;4;4;
76679;PMS5003;65597;51.520;-0.224;2023-04-01T05:07:01;4;4;
76679;PMS5003;65597;51.520;-0.224;2023-04-01T05:09:27;3;3;
76679;PMS5003;65597;51.520;-0.224;2023-04-01T05:11:53;4;4;
76679;PMS5003;65597;51.520;-0.224;2023-04-01T05:14:18;4;4;
76679;PMS5003;65597;51.520;-0.224;2023-04-01T05:16:43;5;5;
76679;PMS5003;65597;51.520;-0.224;2023-04-01T05:19:09;4;4;
76679;PMS5003;65597;51.520;-0.224;2023-04-01T05:21:34;5;4;
76679;PMS5003;65597;51.520;-0.224;2023-04-01T05:24:01;4;4;
76679;PMS5003;65597;51.520;-0.224;2023-04-01T05:26:25;3;3;
76679;PMS5003;65597;51.520;-0.224;2023-04-01T05:28:50;6;6;
76679;PMS5003;65597;51.520;-0.224;2023-04-01T05:31:16;3;3;
76679;PMS5003;65597;51.520;-0.224;2023-04-01T05:33:42;4;4;
76679;PMS5003;65597;51.520;-0.224;2023-04-01T05:36:09;6;4;
76679;PMS5003;65597;51.520;-0.224;2023-04-01T05:38:32;4;4;
76679;PMS5003;65597;51.520;-0.224;2023-04-01T05:40:58;4;4;
76679;PMS5003;65597;51.520;-0.224;2023-04-01T05:43:23;4;3;
76679;PMS5003;65597;51.520;-0.224;2023-04-01T05:45:49;4;4;
76679;PMS5003;65597;51.520;-0.224;2023-04-01T05:48:14;3;3;
76679;PMS5003;65597;51.520;-0.224;2023-04-01T05:50:40;3;3;
76679;PMS5003;65597;51.520;-0.224;2023-04-01T05:53:05;10;6;
76679;PMS5003;65597;51.520;-0.224;2023-04-01T05:55:30;5;5;
76679;PMS5003;65597;51.520;-0.224;2023-04-01T05:57:56;3;3;
76679;PMS5003;65597;51.520;-0.224;2023-04-01T06:00:22;3;3;
76679;PMS5003;65597;51.520;-0.224;2023-04-01T06:02:47;3;3;
76679;PMS5003;65597;51.520;-0.224;2023-04-01T06:05:14;3;3;
76679;PMS5003;65597;51.520;-0.224;2023-04-01T06:07:38;4;4;
76679;PMS5003;65597;51.520;-0.224;2023-04-01T06:10:05;4;4;
76679;PMS5003;65597;51.520;-0.224;2023-04-01T06:12:34;3;3;
76679;PMS5003;65597;51.520;-0.224;2023-04-01T06:14:56;6;6;
76679;PMS5003;65597;51.520;-0.224;2023-04-01T06:17:22;5;5;
76679;PMS5003;65597;51.520;-0.224;2023-04-01T06:19:47;7;7;
76679;PMS5003;65597;51.520;-0.224;2023-04-01T06:24:41;7;6;
76679;PMS5003;65597;51.520;-0.224;2023-04-01T06:27:02;9;8;
76679;PMS5003;65597;51.520;-0.224;2023-04-01T06:29:31;8;7;
76679;PMS5003;65597;51.520;-0.224;2023-04-01T06:31:57;5;4;
76679;PMS5003;65597;51.520;-0.224;2023-04-01T06:34:21;11;7;
76679;PMS5003;65597;51.520;-0.224;2023-04-01T06:36:48;6;6;
76679;PMS5003;65597;51.520;-0.224;2023-04-01T06:39:11;6;6;
76679;PMS5003;65597;51.520;-0.224;2023-04-01T06:41:36;6;5;
76679;PMS5003;65597;51.520;-0.224;2023-04-01T06:43:59;6;6;
76679;PMS5003;65597;51.520;-0.224;2023-04-01T06:46:26;4;4;
76679;PMS5003;65597;51.520;-0.224;2023-04-01T06:48:57;6;5;
76679;PMS5003;65597;51.520;-0.224;2023-04-01T06:51:18;5;5;
76679;PMS5003;65597;51.520;-0.224;2023-04-01T06:53:42;6;5;
76679;PMS5003;65597;51.520;-0.224;2023-04-01T06:56:07;6;5;
76679;PMS5003;65597;51.520;-0.224;2023-04-01T06:58:34;4;4;
76679;PMS5003;65597;51.520;-0.224;2023-04-01T07:00:57;8;7;
76679;PMS5003;65597;51.520;-0.224;2023-04-01T07:03:23;5;5;
76679;PMS5003;65597;51.520;-0.224;2023-04-01T07:05:48;6;5;
76679;PMS5003;65597;51.520;-0.224;2023-04-01T07:08:15;7;6;
76679;PMS5003;65597;51.520;-0.224;2023-04-01T07:10:41;6;6;
76679;PMS5003;65597;51.520;-0.224;2023-04-01T07:13:05;5;5;
76679;PMS5003;65597;51.520;-0.224;2023-04-01T07:15:30;7;6;
76679;PMS5003;65597;51.520;-0.224;2023-04-01T07:17:56;7;7;
76679;PMS5003;65597;51.520;-0.224;2023-04-01T07:20:22;6;5;
76679;PMS5003;65597;51.520;-0.224;2023-04-01T07:22:47;7;7;
76679;PMS5003;65597;51.520;-0.224;2023-04-01T07:25:14;5;5;
76679;PMS5003;65597;51.520;-0.224;2023-04-01T07:27:37;7;6;
76679;PMS5003;65597;51.520;-0.224;2023-04-01T07:30:03;4;4;
76679;PMS5003;65597;51.520;-0.224;2023-04-01T07:32:31;6;5;
76679;PMS5003;65597;51.520;-0.224;2023-04-01T07:34:56;8;7;
76679;PMS5003;65597;51.520;-0.224;2023-04-01T07:37:22;9;9;
76679;PMS5003;65597;51.520;-0.224;2023-04-01T07:39:47;7;7;
76679;PMS5003;65597;51.520;-0.224;2023-04-01T07:42:13;8;7;
76679;PMS5003;65597;51.520;-0.224;2023-04-01T07:44:37;8;8;
76679;PMS5003;65597;51.520;-0.224;2023-04-01T07:47:10;12;8;
76679;PMS5003;65597;51.520;-0.224;2023-04-01T07:49:30;5;5;
76679;PMS5003;65597;51.520;-0.224;2023-04-01T07:51:54;5;5;
76679;PMS5003;65597;51.520;-0.224;2023-04-01T07:54:18;7;7;
76679;PMS5003;65597;51.520;-0.224;2023-04-01T07:56:44;7;7;
76679;PMS5003;65597;51.520;-0.224;2023-04-01T07:59:10;5;5;
76679;PMS5003;65597;51.520;-0.224;2023-04-01T08:01:36;9;8;
76679;PMS5003;65597;51.520;-0.224;2023-04-01T08:04:09;8;7;
76679;PMS5003;65597;51.520;-0.224;2023-04-01T08:06:26;9;7;
76679;PMS5003;65597;51.520;-0.224;2023-04-01T08:08:54;7;6;
76679;PMS5003;65597;51.520;-0.224;2023-04-01T08:11:20;7;5;
76679;PMS5003;65597;51.520;-0.224;2023-04-01T08:13:44;6;6;
76679;PMS5003;65597;51.520;-0.224;2023-04-01T08:16:09;5;5;
76679;PMS5003;65597;51.520;-0.224;2023-04-01T08:18:34;9;9;
76679;PMS5003;65597;51.520;-0.224;2023-04-01T08:20:58;7;7;
76679;PMS5003;65597;51.520;-0.224;2023-04-01T08:23:24;7;7;
76679;PMS5003;65597;51.520;-0.224;2023-04-01T08:25:50;7;7;
76679;PMS5003;65597;51.520;-0.224;2023-04-01T08:28:16;7;7;
76679;PMS5003;65597;51.520;-0.224;2023-04-01T08:30:40;8;7;
76679;PMS5003;65597;51.520;-0.224;2023-04-01T08:33:05;9;9;
76679;PMS5003;65597;51.520;-0.224;2023-04-01T08:35:31;5;5;
76679;PMS5003;65597;51.520;-0.224;2023-04-01T08:37:58;13;8;
76679;PMS5003;65597;51.520;-0.224;2023-04-01T08:40:35;7;7;
76679;PMS5003;65597;51.520;-0.224;2023-04-01T08:42:50;7;7;
76679;PMS5003;65597;51.520;-0.224;2023-04-01T08:45:21;9;8;
76679;PMS5003;65597;51.520;-0.224;2023-04-01T08:47:40;10;9;
76679;PMS5003;65597;51.520;-0.224;2023-04-01T08:52:30;10;9;
76679;PMS5003;65597;51.520;-0.224;2023-04-01T08:55:02;10;9;
76679;PMS5003;65597;51.520;-0.224;2023-04-01T08:57:21;10;9;
76679;PMS5003;65597;51.520;-0.224;2023-04-01T08:59:50;9;9;
76679;PMS5003;65597;51.520;-0.224;2023-04-01T09:04:39;7;7;
76679;PMS5003;65597;51.520;-0.224;2023-04-01T09:07:04;9;9;
76679;PMS5003;65597;51.520;-0.224;2023-04-01T09:12:00;6;6;
76679;PMS5003;65597;51.520;-0.224;2023-04-01T09:14:22;8;8;
76679;PMS5003;65597;51.520;-0.224;2023-04-01T09:19:15;8;7;
76679;PMS5003;65597;51.520;-0.224;2023-04-01T09:21:37;13;9;
76679;PMS5003;65597;51.520;-0.224;2023-04-01T09:26:30;12;11;
76679;PMS5003;65597;51.520;-0.224;2023-04-01T09:28:52;10;9;
76679;PMS5003;65597;51.520;-0.224;2023-04-01T09:31:18;12;11;
76679;PMS5003;65597;51.520;-0.224;2023-04-01T09:36:07;9;9;
76679;PMS5003;65597;51.520;-0.224;2023-04-01T09:38:36;13;13;
76679;PMS5003;65597;51.520;-0.224;2023-04-01T09:40:57;12;11;
76679;PMS5003;65597;51.520;-0.224;2023-04-01T09:43:25;12;12;
76679;PMS5003;65597;51.520;-0.224;2023-04-01T09:45:51;19;13;
76679;PMS5003;65597;51.520;-0.224;2023-04-01T09:48:18;11;10;
76679;PMS5003;65597;51.520;-0.224;2023-04-01T09:50:42;16;13;
76679;PMS5003;65597;51.520;-0.224;2023-04-01T09:53:07;11;9;
76679;PMS5003;65597;51.520;-0.224;2023-04-01T10:02:52;8;8;
76679;PMS5003;65597;51.520;-0.224;2023-04-01T10:22:17;9;9;
76679;PMS5003;65597;51.520;-0.224;2023-04-01T10:27:06;9;9;
76679;PMS5003;65597;51.520;-0.224;2023-04-01T10:29:36;10;10;
76679;PMS5003;65597;51.520;-0.224;2023-04-01T10:34:29;11;10;
76679;PMS5003;65597;51.520;-0.224;2023-04-01T10:36:47;9;8;
76679;PMS5003;65597;51.520;-0.224;2023-04-01T10:39:13;9;9;
76679;PMS5003;65597;51.520;-0.224;2023-04-01T10:51:20;11;10;
76679;PMS5003;65597;51.520;-0.224;2023-04-01T10:53:42;7;7;
76679;PMS5003;65597;51.520;-0.224;2023-04-01T10:56:16;10;9;
76679;PMS5003;65597;51.520;-0.224;2023-04-01T10:58:39;11;9;
76679;PMS5003;65597;51.520;-0.224;2023-04-01T11:13:12;6;6;
76679;PMS5003;65597;51.520;-0.224;2023-04-01T11:15:31;7;6;
76679;PMS5003;65597;51.520;-0.224;2023-04-01T11:20:23;8;6;
76679;PMS5003;65597;51.520;-0.224;2023-04-01T11:22:51;8;8;
76679;PMS5003;65597;51.520;-0.224;2023-04-01T11:25:15;10;9;
76679;PMS5003;65597;51.520;-0.224;2023-04-01T11:27:40;6;6;
76679;PMS5003;65597;51.520;-0.224;2023-04-01T11:30:05;6;6;
76679;PMS5003;65597;51.520;-0.224;2023-04-01T11:32:30;8;6;
76679;PMS5003;65597;51.520;-0.224;2023-04-01T11:34:56;8;7;
76679;PMS5003;65597;51.520;-0.224;2023-04-01T11:37:21;6;5;
76679;PMS5003;65597;51.520;-0.224;2023-04-01T11:39:45;4;4;
76679;PMS5003;65597;51.520;-0.224;2023-04-01T11:42:12;7;7;
76679;PMS5003;65597;51.520;-0.224;2023-04-01T11:44:34;9;7;
76679;PMS5003;65597;51.520;-0.224;2023-04-01T11:49:28;6;6;
76679;PMS5003;65597;51.520;-0.224;2023-04-01T11:51:54;4;4;
76679;PMS5003;65597;51.520;-0.224;2023-04-01T11:54:19;4;4;
76679;PMS5003;65597;51.520;-0.224;2023-04-01T11:56:45;4;4;
76679;PMS5003;65597;51.520;-0.224;2023-04-01T11:59:18;6;5;
76679;PMS5003;65597;51.520;-0.224;2023-04-01T12:01:36;5;4;
76679;PMS5003;65597;51.520;-0.224;2023-04-01T12:04:06;6;5;
76679;PMS5003;65597;51.520;-0.224;2023-04-01T12:06:23;7;6;
76679;PMS5003;65597;51.520;-0.224;2023-04-01T12:08:50;4;4;
76679;PMS5003;65597;51.520;-0.224;2023-04-01T12:11:15;7;7;
76679;PMS5003;65597;51.520;-0.224;2023-04-01T12:13:41;7;6;
76679;PMS5003;65597;51.520;-0.224;2023-04-01T12:16:10;7;6;
76679;PMS5003;65597;51.520;-0.224;2023-04-01T12:18:31;5;5;
76679;PMS5003;65597;51.520;-0.224;2023-04-01T12:20:56;6;5;
76679;PMS5003;65597;51.520;-0.224;2023-04-01T12:23:25;5;4;
76679;PMS5003;65597;51.520;-0.224;2023-04-01T12:25:55;4;4;
76679;PMS5003;65597;51.520;-0.224;2023-04-01T12:28:14;5;4;
76679;PMS5003;65597;51.520;-0.224;2023-04-01T12:30:39;6;5;
76679;PMS5003;65597;51.520;-0.224;2023-04-01T12:33:07;6;5;
76679;PMS5003;65597;51.520;-0.224;2023-04-01T12:35:29;5;5;
76679;PMS5003;65597;51.520;-0.224;2023-04-01T12:37:59;5;3;
76679;PMS5003;65597;51.520;-0.224;2023-04-01T12:40:25;5;5;
76679;PMS5003;65597;51.520;-0.224;2023-04-01T12:42:48;4;4;
76679;PMS5003;65597;51.520;-0.224;2023-04-01T12:45:18;6;5;
76679;PMS5003;65597;51.520;-0.224;2023-04-01T12:47:41;6;4;
76679;PMS5003;65597;51.520;-0.224;2023-04-01T12:50:10;3;3;
76679;PMS5003;65597;51.520;-0.224;2023-04-01T12:52:26;6;4;
76679;PMS5003;65597;51.520;-0.224;2023-04-01T12:55:02;5;5;
76679;PMS5003;65597;51.520;-0.224;2023-04-01T12:57:20;5;5;
76679;PMS5003;65597;51.520;-0.224;2023-04-01T12:59:45;7;6;
76679;PMS5003;65597;51.520;-0.224;2023-04-01T13:02:11;8;7;
76679;PMS5003;65597;51.520;-0.224;2023-04-01T13:04:37;9;8;
76679;PMS5003;65597;51.520;-0.224;2023-04-01T13:07:03;7;6;
76679;PMS5003;65597;51.520;-0.224;2023-04-01T13:09:25;10;7;
76679;PMS5003;65597;51.520;-0.224;2023-04-01T13:11:52;6;5;
76679;PMS5003;65597;51.520;-0.224;2023-04-01T13:16:39;8;8;
76679;PMS5003;65597;51.520;-0.224;2023-04-01T13:19:06;9;9;
76679;PMS5003;65597;51.520;-0.224;2023-04-01T13:21:33;10;10;
76679;PMS5003;65597;51.520;-0.224;2023-04-01T13:23:56;6;6;
76679;PMS5003;65597;51.520;-0.224;2023-04-01T13:26:22;8;8;
76679;PMS5003;65597;51.520;-0.224;2023-04-01T13:28:49;9;8;
76679;PMS5003;65597;51.520;-0.224;2023-04-01T13:31:15;6;5;
76679;PMS5003;65597;51.520;-0.224;2023-04-01T13:33:38;9;7;
76679;PMS5003;65597;51.520;-0.224;2023-04-01T13:36:07;6;6;
76679;PMS5003;65597;51.520;-0.224;2023-04-01T13:38:35;8;7;
76679;PMS5003;65597;51.520;-0.224;2023-04-01T13:40:54;6;6;
76679;PMS5003;65597;51.520;-0.224;2023-04-01T13:43:20;5;5;
76679;PMS5003;65597;51.520;-0.224;2023-04-01T13:45:50;7;7;
76679;PMS5003;65597;51.520;-0.224;2023-04-01T13:50:39;10;9;
76679;PMS5003;65597;51.520;-0.224;2023-04-01T13:53:09;12;11;
76679;PMS5003;65597;51.520;-0.224;2023-04-01T13:55:33;10;9;
76679;PMS5003;65597;51.520;-0.224;2023-04-01T13:57:53;5;5;
76679;PMS5003;65597;51.520;-0.224;2023-04-01T14:00:19;7;7;
76679;PMS5003;65597;51.520;-0.224;2023-04-01T14:02:46;8;8;
76679;PMS5003;65597;51.520;-0.224;2023-04-01T14:05:09;6;6;
76679;PMS5003;65597;51.520;-0.224;2023-04-01T14:07:36;7;6;
76679;PMS5003;65597;51.520;-0.224;2023-04-01T14:09:59;8;7;
76679;PMS5003;65597;51.520;-0.224;2023-04-01T14:12:27;6;6;
76679;PMS5003;65597;51.520;-0.224;2023-04-01T14:14:53;11;9;
76679;PMS5003;65597;51.520;-0.224;2023-04-01T14:17:17;8;8;
76679;PMS5003;65597;51.520;-0.224;2023-04-01T14:19:44;10;9;
76679;PMS5003;65597;51.520;-0.224;2023-04-01T14:22:05;9;9;
76679;PMS5003;65597;51.520;-0.224;2023-04-01T14:27:04;11;10;
76679;PMS5003;65597;51.520;-0.224;2023-04-01T14:29:24;9;9;
76679;PMS5003;65597;51.520;-0.224;2023-04-01T14:31:48;10;9;
76679;PMS5003;65597;51.520;-0.224;2023-04-01T14:34:18;10;10;
76679;PMS5003;65597;51.520;-0.224;2023-04-01T14:36:43;8;8;
76679;PMS5003;65597;51.520;-0.224;2023-04-01T14:39:08;10;10;
76679;PMS5003;65597;51.520;-0.224;2023-04-01T14:41:32;11;10;
76679;PMS5003;65597;51.520;-0.224;2023-04-01T14:43:58;9;9;
76679;PMS5003;65597;51.520;-0.224;2023-04-01T14:48:50;11;10;
76679;PMS5003;65597;51.520;-0.224;2023-04-01T14:51:13;11;10;
76679;PMS5003;65597;51.520;-0.224;2023-04-01T14:53:36;8;8;
76679;PMS5003;65597;51.520;-0.224;2023-04-01T14:56:02;10;9;
76679;PMS5003;65597;51.520;-0.224;2023-04-01T14:58:31;9;8;
76679;PMS5003;65597;51.520;-0.224;2023-04-01T15:00:55;10;9;
76679;PMS5003;65597;51.520;-0.224;2023-04-01T15:03:19;8;8;
76679;PMS5003;65597;51.520;-0.224;2023-04-01T15:05:45;8;8;
76679;PMS5003;65597;51.520;-0.224;2023-04-01T15:08:10;10;8;
76679;PMS5003;65597;51.520;-0.224;2023-04-01T15:10:41;7;7;
76679;PMS5003;65597;51.520;-0.224;2023-04-01T15:13:03;10;10;
76679;PMS5003;65597;51.520;-0.224;2023-04-01T15:15:29;11;11;
76679;PMS5003;65597;51.520;-0.224;2023-04-01T15:17:56;10;10;
76679;PMS5003;65597;51.520;-0.224;2023-04-01T15:20:22;10;10;
76679;PMS5003;65597;51.520;-0.224;2023-04-01T15:22:44;14;12;
76679;PMS5003;65597;51.520;-0.224;2023-04-01T15:27:34;8;7;
76679;PMS5003;65597;51.520;-0.224;2023-04-01T15:30:02;8;7;
76679;PMS5003;65597;51.520;-0.224;2023-04-01T15:32:23;9;8;
76679;PMS5003;65597;51.520;-0.224;2023-04-01T15:34:50;8;8;
76679;PMS5003;65597;51.520;-0.224;2023-04-01T15:37:14;9;8;
76679;PMS5003;65597;51.520;-0.224;2023-04-01T15:39:42;7;7;
76679;PMS5003;65597;51.520;-0.224;2023-04-01T15:42:10;9;8;
76679;PMS5003;65597;51.520;-0.224;2023-04-01T15:44:37;10;9;
76679;PMS5003;65597;51.520;-0.224;2023-04-01T15:47:00;8;7;
76679;PMS5003;65597;51.520;-0.224;2023-04-01T15:49:25;9;9;
76679;PMS5003;65597;51.520;-0.224;2023-04-01T15:51:48;8;7;
76679;PMS5003;65597;51.520;-0.224;2023-04-01T15:54:19;12;12;
76679;PMS5003;65597;51.520;-0.224;2023-04-01T15:56:41;9;9;
76679;PMS5003;65597;51.520;-0.224;2023-04-01T15:59:06;9;8;
76679;PMS5003;65597;51.520;-0.224;2023-04-01T16:01:31;9;9;
76679;PMS5003;65597;51.520;-0.224;2023-04-01T16:03:54;9;7;
76679;PMS5003;65597;51.520;-0.224;2023-04-01T16:06:24;9;8;
76679;PMS5003;65597;51.520;-0.224;2023-04-01T16:08:48;11;10;
76679;PMS5003;65597;51.520;-0.224;2023-04-01T16:11:12;7;7;
76679;PMS5003;65597;51.520;-0.224;2023-04-01T16:13:38;6;6;
76679;PMS5003;65597;51.520;-0.224;2023-04-01T16:16:03;8;7;
76679;PMS5003;65597;51.520;-0.224;2023-04-01T16:18:29;8;8;
76679;PMS5003;65597;51.520;-0.224;2023-04-01T16:20:51;7;7;
76679;PMS5003;65597;51.520;-0.224;2023-04-01T16:23:18;8;8;
76679;PMS5003;65597;51.520;-0.224;2023-04-01T16:25:43;8;8;
76679;PMS5003;65597;51.520;-0.224;2023-04-01T16:28:15;8;7;
76679;PMS5003;65597;51.520;-0.224;2023-04-01T16:30:34;10;9;
76679;PMS5003;65597;51.520;-0.224;2023-04-01T16:32:59;10;10;
76679;PMS5003;65597;51.520;-0.224;2023-04-01T16:35:25;9;9;
76679;PMS5003;65597;51.520;-0.224;2023-04-01T16:37:49;10;9;
76679;PMS5003;65597;51.520;-0.224;2023-04-01T16:40:20;9;8;
76679;PMS5003;65597;51.520;-0.224;2023-04-01T16:42:40;8;6;
76679;PMS5003;65597;51.520;-0.224;2023-04-01T16:45:15;6;6;
76679;PMS5003;65597;51.520;-0.224;2023-04-01T16:47:31;7;7;
76679;PMS5003;65597;51.520;-0.224;2023-04-01T16:49:57;6;6;
76679;PMS5003;65597;51.520;-0.224;2023-04-01T16:54:48;8;8;
76679;PMS5003;65597;51.520;-0.224;2023-04-01T16:57:15;6;6;
76679;PMS5003;65597;51.520;-0.224;2023-04-01T16:59:38;5;5;
76679;PMS5003;65597;51.520;-0.224;2023-04-01T17:02:04;6;6;
76679;PMS5003;65597;51.520;-0.224;2023-04-01T17:04:30;7;6;
76679;PMS5003;65597;51.520;-0.224;2023-04-01T17:06:56;9;7;
76679;PMS5003;65597;51.520;-0.224;2023-04-01T17:09:23;6;6;
76679;PMS5003;65597;51.520;-0.224;2023-04-01T17:11:45;6;5;
76679;PMS5003;65597;51.520;-0.224;2023-04-01T17:14:13;9;7;
76679;PMS5003;65597;51.520;-0.224;2023-04-01T17:16:44;5;5;
76679;PMS5003;65597;51.520;-0.224;2023-04-01T17:19:04;8;8;
76679;PMS5003;65597;51.520;-0.224;2023-04-01T17:21:38;5;5;
76679;PMS5003;65597;51.520;-0.224;2023-04-01T17:23:53;6;5;
76679;PMS5003;65597;51.520;-0.224;2023-04-01T17:26:20;9;7;
76679;PMS5003;65597;51.520;-0.224;2023-04-01T17:28:45;6;6;
76679;PMS5003;65597;51.520;-0.224;2023-04-01T17:31:10;6;6;
76679;PMS5003;65597;51.520;-0.224;2023-04-01T17:33:37;9;9;
76679;PMS5003;65597;51.520;-0.224;2023-04-01T17:35:59;7;7;
76679;PMS5003;65597;51.520;-0.224;2023-04-01T17:38:29;7;7;
76679;PMS5003;65597;51.520;-0.224;2023-04-01T17:40:54;7;6;
76679;PMS5003;65597;51.520;-0.224;2023-04-01T17:43:17;7;7;
76679;PMS5003;65597;51.520;-0.224;2023-04-01T17:45:42;9;9;